createdAt,value
2017-10-06T00:01:15.575Z,89.47
2017-10-06T00:09:35.122Z,89.65
2017-10-06T00:10:42.105Z,89.56
2017-10-06T00:12:26.219Z,89.56
2017-10-06T00:13:26.625Z,89.14
2017-10-06T00:14:26.347Z,90.18
2017-10-06T00:21:12.142Z,90.66
2017-10-06T00:26:01.235Z,91.32
2017-10-06T00:26:57.750Z,92.13
2017-10-06T00:30:21.270Z,92.32
2017-10-06T00:31:17.251Z,92.41
2017-10-06T00:32:17.252Z,91.80
2017-10-06T00:39:59.594Z,92.41
2017-10-06T00:40:57.420Z,92.03
2017-10-06T00:41:56.914Z,91.80
2017-10-06T00:42:56.428Z,91.70
2017-10-06T00:46:36.989Z,91.56
2017-10-06T00:47:32.660Z,92.03
2017-10-06T00:48:32.277Z,92.51
2017-10-06T00:57:19.847Z,92.32
2017-10-06T00:58:17.235Z,93.08
2017-10-06T01:02:35.224Z,91.61
2017-10-06T01:07:41.147Z,91.75
2017-10-06T01:10:31.623Z,91.61
2017-10-06T01:18:23.349Z,92.51
2017-10-06T01:19:19.075Z,92.70
2017-10-06T01:20:19.090Z,92.41
2017-10-06T01:21:18.185Z,92.41
2017-10-06T01:22:18.654Z,93.18
2017-10-06T01:23:18.640Z,92.32
2017-10-06T01:24:19.099Z,92.99
2017-10-06T01:25:18.520Z,92.89
2017-10-06T01:26:18.593Z,92.22
2017-10-06T01:27:17.960Z,92.13
2017-10-06T01:31:19.966Z,92.70
2017-10-06T01:32:16.986Z,92.70
2017-10-06T01:33:17.478Z,92.41
2017-10-06T01:34:16.895Z,91.94
2017-10-06T01:35:17.813Z,92.32
2017-10-06T01:36:16.859Z,92.32
2017-10-06T01:37:16.961Z,91.56
2017-10-06T01:38:17.276Z,91.61
2017-10-06T01:39:17.747Z,92.13
2017-10-06T01:40:16.870Z,91.51
2017-10-06T01:45:30.173Z,90.18
2017-10-06T01:46:28.386Z,90.56
2017-10-06T01:47:28.573Z,90.37
2017-10-06T01:48:28.307Z,90.28
2017-10-06T01:49:29.338Z,90.28
2017-10-06T01:50:28.229Z,90.28
2017-10-06T01:51:27.768Z,90.37
2017-10-06T01:52:27.609Z,91.13
2017-10-06T01:53:27.943Z,90.37
2017-10-06T01:54:28.545Z,90.37
2017-10-06T01:55:28.519Z,90.66
2017-10-06T01:56:27.456Z,91.61
2017-10-06T01:57:27.898Z,90.75
2017-10-06T01:58:40.083Z,90.66
2017-10-06T01:59:27.879Z,91.03
2017-10-06T02:03:07.060Z,89.89
2017-10-06T02:06:02.402Z,89.80
2017-10-06T02:10:43.259Z,89.70
2017-10-06T02:11:43.573Z,89.99
2017-10-06T02:12:44.213Z,89.80
2017-10-06T02:13:43.590Z,89.51
2017-10-06T02:14:43.025Z,89.42
2017-10-06T02:15:42.539Z,89.61
2017-10-06T02:16:42.449Z,89.80
2017-10-06T02:21:08.144Z,88.66
2017-10-06T02:22:15.303Z,88.18
2017-10-06T02:23:04.054Z,88.28
2017-10-06T02:24:04.205Z,88.75
2017-10-06T02:25:03.460Z,88.56
2017-10-06T02:26:03.409Z,88.94
2017-10-06T02:27:02.858Z,89.04
2017-10-06T02:28:03.368Z,88.56
2017-10-06T02:29:03.724Z,88.94
2017-10-06T02:30:03.262Z,89.23
2017-10-06T02:34:41.783Z,88.28
2017-10-06T02:35:40.977Z,89.61
2017-10-06T02:36:41.734Z,88.75
2017-10-06T02:37:42.478Z,88.28
2017-10-06T02:38:41.388Z,88.66
2017-10-06T02:39:41.328Z,89.51
2017-10-06T02:40:53.460Z,89.32
2017-10-06T02:41:40.740Z,89.23
2017-10-06T02:42:40.667Z,89.42
2017-10-06T02:43:41.168Z,89.23
2017-10-06T02:44:41.281Z,88.85
2017-10-06T02:45:40.584Z,88.37
2017-10-06T02:46:41.034Z,88.28
2017-10-06T02:47:40.482Z,89.23
2017-10-06T02:48:41.277Z,88.46
2017-10-06T02:49:40.366Z,88.09
2017-10-06T02:50:40.863Z,88.18
2017-10-06T02:51:40.273Z,88.56
2017-10-06T02:52:40.763Z,88.56
2017-10-06T02:53:51.876Z,88.37
2017-10-06T02:55:35.167Z,88.28
2017-10-06T02:56:34.933Z,88.09
2017-10-06T02:57:35.389Z,88.46
2017-10-06T02:58:35.021Z,88.85
2017-10-06T02:59:35.834Z,88.46
2017-10-06T03:00:35.270Z,88.28
2017-10-06T03:01:34.206Z,88.56
2017-10-06T03:02:35.195Z,88.37
2017-10-06T03:03:34.637Z,88.56
2017-10-06T03:04:35.077Z,88.66
2017-10-06T03:05:35.519Z,88.28
2017-10-06T03:06:35.050Z,87.99
2017-10-06T03:07:33.953Z,88.28
2017-10-06T03:08:33.688Z,88.18
2017-10-06T03:09:33.641Z,87.90
2017-10-06T03:10:33.448Z,88.09
2017-10-06T03:11:33.499Z,88.09
2017-10-06T03:12:33.363Z,88.09
2017-10-06T03:13:33.455Z,87.80
2017-10-06T03:14:33.384Z,88.18
2017-10-06T03:15:33.227Z,87.80
2017-10-06T03:16:33.139Z,87.61
2017-10-06T03:17:33.147Z,88.37
2017-10-06T03:18:33.131Z,87.80
2017-10-06T03:19:42.285Z,88.37
2017-10-06T03:21:45.382Z,88.37
2017-10-06T03:22:43.800Z,87.80
2017-10-06T03:23:43.258Z,88.09
2017-10-06T03:28:20.823Z,89.32
2017-10-06T03:29:20.650Z,88.28
2017-10-06T03:32:54.609Z,87.61
2017-10-06T03:33:54.622Z,87.80
2017-10-06T03:34:54.501Z,87.90
2017-10-06T03:35:54.618Z,87.52
2017-10-06T03:36:55.129Z,87.99
2017-10-06T03:39:38.682Z,88.66
2017-10-06T03:40:38.065Z,88.66
2017-10-06T03:41:40.850Z,88.56
2017-10-06T03:45:11.174Z,88.18
2017-10-06T03:46:11.165Z,88.09
2017-10-06T03:48:20.334Z,87.90
2017-10-06T03:49:16.648Z,88.28
2017-10-06T03:50:26.497Z,88.37
2017-10-06T03:51:17.141Z,89.14
2017-10-06T03:56:01.005Z,89.51
2017-10-06T03:56:58.344Z,89.14
2017-10-06T03:57:59.402Z,90.28
2017-10-06T03:58:58.759Z,90.18
2017-10-06T03:59:58.253Z,90.08
2017-10-06T04:00:58.727Z,89.32
2017-10-06T04:01:58.164Z,89.23
2017-10-06T04:02:59.199Z,89.42
2017-10-06T04:04:07.822Z,89.42
2017-10-06T04:05:51.918Z,89.23
2017-10-06T04:06:59.262Z,89.70
2017-10-06T04:07:50.903Z,90.08
2017-10-06T04:08:50.862Z,89.99
2017-10-06T04:09:51.844Z,90.18
2017-10-06T04:10:51.484Z,90.08
2017-10-06T04:11:51.444Z,89.42
2017-10-06T04:12:51.189Z,89.42
2017-10-06T04:13:51.204Z,89.04
2017-10-06T04:14:51.134Z,89.70
2017-10-06T04:15:50.537Z,89.04
2017-10-06T04:16:51.573Z,89.51
2017-10-06T04:17:51.025Z,89.70
2017-10-06T04:18:50.986Z,89.89
2017-10-06T04:19:50.956Z,89.23
2017-10-06T04:20:50.371Z,89.70
2017-10-06T04:23:45.036Z,89.51
2017-10-06T04:24:44.079Z,89.42
2017-10-06T04:25:44.617Z,89.61
2017-10-06T04:26:44.589Z,89.23
2017-10-06T04:27:44.591Z,89.04
2017-10-06T04:28:44.454Z,89.51
2017-10-06T04:29:44.429Z,89.42
2017-10-06T04:30:53.523Z,89.99
2017-10-06T04:42:04.054Z,89.99
2017-10-06T04:43:13.266Z,89.99
2017-10-06T04:44:05.003Z,89.51
2017-10-06T04:45:03.894Z,89.61
2017-10-06T04:46:04.925Z,89.23
2017-10-06T04:47:04.749Z,88.94
2017-10-06T04:48:05.238Z,89.23
2017-10-06T04:49:04.747Z,89.23
2017-10-06T04:52:00.818Z,90.08
2017-10-06T04:53:00.709Z,89.42
2017-10-06T04:54:01.866Z,89.32
2017-10-06T04:55:09.697Z,89.23
2017-10-06T04:56:52.931Z,89.89
2017-10-06T04:57:52.883Z,89.23
2017-10-06T04:59:48.655Z,90.28
2017-10-06T05:00:46.332Z,90.28
2017-10-06T05:01:45.731Z,90.66
2017-10-06T05:02:45.667Z,91.80
2017-10-06T05:03:46.717Z,91.89
2017-10-06T05:04:45.611Z,92.46
2017-10-06T05:05:46.072Z,92.75
2017-10-06T05:06:46.044Z,92.36
2017-10-06T05:07:46.195Z,93.04
2017-10-06T05:08:45.345Z,92.94
2017-10-06T05:09:45.100Z,93.13
2017-10-06T05:10:44.975Z,92.46
2017-10-06T05:11:44.906Z,93.23
2017-10-06T05:12:44.841Z,93.89
2017-10-06T05:13:44.822Z,93.32
2017-10-06T05:14:44.767Z,93.60
2017-10-06T05:15:44.702Z,92.94
2017-10-06T05:16:44.797Z,92.56
2017-10-06T05:17:44.618Z,93.32
2017-10-06T05:18:44.727Z,92.08
2017-10-06T05:19:44.557Z,92.56
2017-10-06T05:20:44.561Z,92.08
2017-10-06T05:21:44.479Z,91.89
2017-10-06T05:22:44.512Z,92.36
2017-10-06T05:23:44.471Z,92.27
2017-10-06T05:24:44.390Z,91.89
2017-10-06T05:25:44.369Z,91.80
2017-10-06T05:26:44.286Z,91.42
2017-10-06T05:27:44.263Z,92.08
2017-10-06T05:28:44.315Z,92.36
2017-10-06T05:29:44.161Z,92.56
2017-10-06T05:30:44.093Z,91.80
2017-10-06T05:31:44.086Z,91.61
2017-10-06T05:32:44.061Z,91.51
2017-10-06T05:33:43.965Z,91.51
2017-10-06T05:34:43.953Z,91.80
2017-10-06T05:35:43.953Z,91.42
2017-10-06T05:36:43.924Z,90.84
2017-10-06T05:37:43.861Z,91.42
2017-10-06T05:38:43.792Z,91.51
2017-10-06T05:39:43.809Z,91.70
2017-10-06T05:40:43.712Z,91.32
2017-10-06T05:41:43.674Z,91.61
2017-10-06T05:42:43.669Z,90.84
2017-10-06T05:43:43.595Z,91.61
2017-10-06T05:44:43.586Z,91.70
2017-10-06T05:45:43.541Z,90.84
2017-10-06T05:46:43.730Z,91.61
2017-10-06T05:47:54.073Z,91.80
2017-10-06T06:08:55.162Z,91.89
2017-10-06T06:09:54.474Z,91.99
2017-10-06T06:10:55.015Z,91.70
2017-10-06T06:15:42.932Z,91.61
2017-10-06T06:16:43.313Z,91.75
2017-10-06T06:18:36.140Z,91.75
2017-10-06T06:19:36.121Z,90.99
2017-10-06T06:21:30.045Z,91.46
2017-10-06T06:24:13.884Z,90.61
2017-10-06T06:25:11.733Z,91.08
2017-10-06T06:29:35.018Z,90.42
2017-10-06T06:30:33.654Z,90.89
2017-10-06T06:31:33.926Z,90.42
2017-10-06T06:32:33.588Z,90.70
2017-10-06T06:33:32.988Z,90.42
2017-10-06T06:34:34.028Z,90.70
2017-10-06T06:37:16.721Z,90.22
2017-10-06T06:38:14.623Z,91.08
2017-10-06T06:39:14.013Z,90.61
2017-10-06T06:44:14.972Z,90.70
2017-10-06T06:45:15.287Z,90.80
2017-10-06T06:46:15.125Z,90.89
2017-10-06T06:47:23.040Z,91.42
2017-10-06T06:49:07.650Z,91.99
2017-10-06T06:50:08.158Z,92.18
2017-10-06T06:52:00.755Z,91.89
2017-10-06T06:53:01.491Z,92.75
2017-10-06T06:54:55.160Z,91.56
2017-10-06T06:55:55.133Z,91.75
2017-10-06T06:57:48.815Z,91.56
2017-10-06T06:58:49.043Z,90.99
2017-10-06T07:00:54.723Z,90.32
2017-10-06T07:01:54.674Z,90.22
2017-10-06T07:02:54.622Z,90.42
2017-10-06T07:03:54.849Z,90.32
2017-10-06T07:05:03.289Z,89.75
2017-10-06T07:06:48.678Z,90.03
2017-10-06T07:07:49.878Z,90.03
2017-10-06T07:09:41.646Z,90.42
2017-10-06T07:10:41.146Z,91.08
2017-10-06T07:11:40.594Z,90.89
2017-10-06T07:12:41.067Z,90.80
2017-10-06T07:13:40.513Z,90.42
2017-10-06T07:14:40.997Z,91.17
2017-10-06T07:15:41.182Z,90.42
2017-10-06T07:16:40.908Z,90.13
2017-10-06T07:17:40.881Z,89.84
2017-10-06T07:18:41.134Z,90.22
2017-10-06T07:19:40.775Z,89.84
2017-10-06T07:20:40.729Z,89.51
2017-10-06T07:21:40.652Z,89.51
2017-10-06T07:22:40.147Z,89.65
2017-10-06T07:23:40.044Z,90.32
2017-10-06T07:24:39.718Z,89.27
2017-10-06T07:25:39.675Z,89.65
2017-10-06T07:26:39.550Z,89.27
2017-10-06T07:27:39.514Z,90.08
2017-10-06T07:28:39.455Z,89.65
2017-10-06T07:29:39.415Z,89.61
2017-10-06T07:30:39.386Z,89.65
2017-10-06T07:31:39.349Z,89.61
2017-10-06T07:32:39.354Z,89.61
2017-10-06T07:33:39.324Z,88.84
2017-10-06T07:34:39.212Z,87.89
2017-10-06T07:35:39.249Z,87.98
2017-10-06T07:36:39.098Z,87.79
2017-10-06T07:37:39.060Z,87.32
2017-10-06T07:38:39.038Z,88.08
2017-10-06T07:39:39.021Z,87.98
2017-10-06T07:40:38.992Z,88.27
2017-10-06T07:41:38.962Z,87.79
2017-10-06T07:42:38.870Z,87.32
2017-10-06T07:43:38.946Z,87.13
2017-10-06T07:44:38.826Z,87.60
2017-10-06T07:45:38.748Z,88.31
2017-10-06T07:46:38.733Z,87.23
2017-10-06T07:47:38.729Z,86.60
2017-10-06T07:48:38.664Z,87.84
2017-10-06T07:49:38.593Z,88.46
2017-10-06T07:50:38.653Z,87.93
2017-10-06T07:51:38.517Z,87.17
2017-10-06T07:52:38.476Z,86.79
2017-10-06T07:53:38.522Z,87.46
2017-10-06T07:54:38.431Z,88.12
2017-10-06T07:55:38.453Z,87.51
2017-10-06T07:56:38.363Z,87.60
2017-10-06T07:57:38.403Z,87.23
2017-10-06T07:58:38.248Z,87.65
2017-10-06T07:59:38.243Z,86.79
2017-10-06T08:00:38.207Z,86.60
2017-10-06T08:01:38.151Z,87.27
2017-10-06T08:02:38.131Z,86.79
2017-10-06T08:03:38.074Z,86.69
2017-10-06T08:04:38.080Z,86.79
2017-10-06T08:05:38.024Z,86.79
2017-10-06T08:06:37.947Z,86.69
2017-10-06T08:07:37.908Z,86.32
2017-10-06T08:08:37.949Z,85.84
2017-10-06T08:09:37.832Z,86.51
2017-10-06T08:10:37.778Z,86.51
2017-10-06T08:11:37.738Z,85.17
2017-10-06T08:12:37.739Z,85.46
2017-10-06T08:13:37.748Z,86.22
2017-10-06T08:14:37.646Z,85.12
2017-10-06T08:15:37.585Z,86.22
2017-10-06T08:16:37.613Z,85.50
2017-10-06T08:17:37.523Z,85.08
2017-10-06T08:18:37.527Z,85.36
2017-10-06T08:19:37.433Z,85.08
2017-10-06T08:20:37.426Z,84.45
2017-10-06T08:21:37.421Z,83.97
2017-10-06T08:22:37.317Z,84.07
2017-10-06T08:23:37.281Z,84.16
2017-10-06T08:24:37.258Z,85.21
2017-10-06T08:25:37.211Z,84.98
2017-10-06T08:26:37.195Z,84.69
2017-10-06T08:27:37.138Z,84.55
2017-10-06T08:28:37.089Z,84.74
2017-10-06T08:29:37.058Z,84.36
2017-10-06T08:30:37.043Z,83.88
2017-10-06T08:31:36.982Z,84.83
2017-10-06T08:32:36.978Z,84.60
2017-10-06T08:33:36.933Z,84.98
2017-10-06T08:34:36.885Z,85.08
2017-10-06T08:35:36.875Z,85.08
2017-10-06T08:36:36.836Z,85.27
2017-10-06T08:37:36.776Z,84.88
2017-10-06T08:38:36.745Z,84.69
2017-10-06T08:39:36.741Z,85.12
2017-10-06T08:40:36.654Z,85.69
2017-10-06T08:41:36.652Z,85.55
2017-10-06T08:42:36.565Z,84.92
2017-10-06T08:43:36.542Z,84.92
2017-10-06T08:44:36.485Z,84.50
2017-10-06T08:45:36.453Z,84.79
2017-10-06T08:46:36.406Z,84.03
2017-10-06T08:47:36.401Z,85.27
2017-10-06T08:48:36.334Z,85.74
2017-10-06T08:49:36.329Z,85.31
2017-10-06T08:50:36.263Z,85.69
2017-10-06T08:51:36.218Z,85.27
2017-10-06T08:52:38.823Z,86.22
2017-10-06T08:53:36.198Z,85.64
2017-10-06T08:54:36.131Z,86.03
2017-10-06T08:55:36.126Z,85.64
2017-10-06T08:56:36.060Z,86.51
2017-10-06T08:57:36.040Z,85.17
2017-10-06T08:58:35.987Z,85.08
2017-10-06T08:59:35.960Z,85.27
2017-10-06T09:00:35.915Z,86.03
2017-10-06T09:01:35.898Z,86.22
2017-10-06T09:02:35.810Z,86.03
2017-10-06T09:03:35.843Z,85.46
2017-10-06T09:04:35.738Z,86.03
2017-10-06T09:05:35.785Z,86.32
2017-10-06T09:06:35.649Z,85.74
2017-10-06T09:07:35.634Z,86.69
2017-10-06T09:08:35.561Z,86.22
2017-10-06T09:09:35.530Z,84.31
2017-10-06T09:10:35.529Z,85.27
2017-10-06T09:11:37.343Z,86.51
2017-10-06T09:12:35.484Z,84.79
2017-10-06T09:13:35.414Z,84.03
2017-10-06T09:14:35.388Z,84.79
2017-10-06T09:15:35.304Z,83.78
2017-10-06T09:16:35.324Z,83.50
2017-10-06T09:17:35.338Z,84.07
2017-10-06T09:18:35.185Z,83.12
2017-10-06T09:19:35.145Z,83.12
2017-10-06T09:20:35.109Z,83.97
2017-10-06T09:21:35.126Z,83.88
2017-10-06T09:22:35.089Z,82.83
2017-10-06T09:23:34.988Z,84.26
2017-10-06T09:24:34.979Z,83.97
2017-10-06T09:25:34.998Z,83.55
2017-10-06T09:26:34.882Z,83.36
2017-10-06T09:27:34.891Z,84.50
2017-10-06T09:28:34.813Z,85.02
2017-10-06T09:29:34.862Z,84.55
2017-10-06T09:30:34.758Z,84.98
2017-10-06T09:31:34.706Z,84.41
2017-10-06T09:32:34.724Z,84.45
2017-10-06T09:33:34.652Z,83.59
2017-10-06T09:34:34.643Z,83.78
2017-10-06T09:35:34.563Z,83.69
2017-10-06T09:36:34.549Z,83.78
2017-10-06T09:37:34.515Z,83.12
2017-10-06T09:38:34.460Z,82.45
2017-10-06T09:39:34.416Z,81.88
2017-10-06T09:40:34.346Z,82.26
2017-10-06T09:41:34.356Z,81.88
2017-10-06T09:42:34.313Z,82.35
2017-10-06T09:43:34.240Z,81.82
2017-10-06T09:44:34.190Z,81.73
2017-10-06T09:45:34.202Z,82.01
2017-10-06T09:46:34.162Z,81.35
2017-10-06T09:47:34.119Z,80.33
2017-10-06T09:48:34.042Z,78.16
2017-10-06T09:49:33.997Z,76.21
2017-10-06T09:50:33.972Z,74.11
2017-10-06T09:51:33.984Z,74.05
2017-10-06T09:52:33.912Z,73.48
2017-10-06T09:53:33.877Z,73.19
2017-10-06T09:54:33.850Z,73.92
2017-10-06T09:55:33.796Z,74.30
2017-10-06T09:56:33.821Z,73.39
2017-10-06T09:57:33.774Z,72.97
2017-10-06T09:58:33.695Z,73.50
2017-10-06T09:59:33.642Z,74.71
2017-10-06T10:00:33.614Z,76.27
2017-10-06T10:01:33.640Z,75.76
2017-10-06T10:02:33.558Z,78.14
2017-10-06T10:03:33.521Z,78.10
2017-10-06T10:04:33.475Z,78.30
2017-10-06T10:05:33.442Z,78.86
2017-10-06T10:06:33.403Z,78.39
2017-10-06T10:07:33.424Z,79.06
2017-10-06T10:08:33.369Z,79.25
2017-10-06T10:09:33.295Z,78.10
2017-10-06T10:10:33.259Z,78.01
2017-10-06T10:11:33.242Z,78.58
2017-10-06T10:12:33.191Z,77.34
2017-10-06T10:13:33.174Z,77.25
2017-10-06T10:14:33.119Z,78.05
2017-10-06T10:15:33.088Z,78.23
2017-10-06T10:16:33.051Z,76.33
2017-10-06T10:17:33.011Z,77.00
2017-10-06T10:18:33.001Z,77.09
2017-10-06T10:19:32.941Z,76.14
2017-10-06T10:20:32.900Z,76.33
2017-10-06T10:21:32.869Z,76.81
2017-10-06T10:22:32.830Z,77.38
2017-10-06T10:23:32.810Z,77.28
2017-10-06T10:24:32.796Z,77.09
2017-10-06T10:25:32.751Z,77.86
2017-10-06T10:26:32.683Z,77.00
2017-10-06T10:27:32.643Z,77.44
2017-10-06T10:28:32.647Z,77.34
2017-10-06T10:29:32.606Z,78.10
2017-10-06T10:30:32.632Z,78.10
2017-10-06T10:31:32.516Z,77.62
2017-10-06T10:32:32.502Z,77.25
2017-10-06T10:33:32.473Z,76.52
2017-10-06T10:34:32.426Z,74.52
2017-10-06T10:35:32.362Z,74.61
2017-10-06T10:36:32.351Z,75.57
2017-10-06T10:37:32.326Z,74.71
2017-10-06T10:38:32.292Z,74.90
2017-10-06T10:39:32.210Z,75.28
2017-10-06T10:40:32.207Z,75.28
2017-10-06T10:41:32.175Z,76.04
2017-10-06T10:42:32.149Z,75.57
2017-10-06T10:43:32.109Z,76.71
2017-10-06T10:44:32.053Z,75.57
2017-10-06T10:45:32.000Z,74.71
2017-10-06T10:46:31.964Z,75.18
2017-10-06T10:47:31.928Z,74.80
2017-10-06T10:48:31.915Z,74.13
2017-10-06T10:49:31.855Z,74.61
2017-10-06T10:50:31.824Z,74.32
2017-10-06T10:51:31.780Z,75.18
2017-10-06T10:52:31.767Z,74.90
2017-10-06T10:53:31.712Z,74.99
2017-10-06T10:54:31.724Z,75.53
2017-10-06T10:55:31.634Z,75.53
2017-10-06T10:56:31.654Z,75.85
2017-10-06T10:57:31.571Z,75.85
2017-10-06T10:58:31.547Z,75.28
2017-10-06T10:59:31.495Z,75.18
2017-10-06T11:00:31.481Z,75.85
2017-10-06T11:01:31.419Z,75.47
2017-10-06T11:02:31.421Z,73.88
2017-10-06T11:03:31.398Z,73.41
2017-10-06T11:04:31.343Z,73.32
2017-10-06T11:05:31.313Z,73.85
2017-10-06T11:06:31.238Z,74.80
2017-10-06T11:07:31.197Z,76.14
2017-10-06T11:08:31.170Z,76.01
2017-10-06T11:09:31.135Z,76.01
2017-10-06T11:10:31.092Z,76.01
2017-10-06T11:11:31.075Z,76.39
2017-10-06T11:12:31.032Z,76.10
2017-10-06T11:13:31.005Z,76.77
2017-10-06T11:14:32.832Z,76.67
2017-10-06T11:15:30.926Z,77.25
2017-10-06T11:16:30.885Z,76.42
2017-10-06T11:17:30.839Z,75.95
2017-10-06T11:18:30.819Z,75.15
2017-10-06T11:19:30.804Z,75.53
2017-10-06T11:20:30.738Z,76.81
2017-10-06T11:21:30.723Z,76.62
2017-10-06T11:22:30.688Z,76.14
2017-10-06T11:23:30.611Z,76.52
2017-10-06T11:24:30.610Z,76.33
2017-10-06T11:25:30.555Z,77.19
2017-10-06T11:26:30.517Z,75.37
2017-10-06T11:27:30.494Z,75.53
2017-10-06T11:28:30.476Z,76.71
2017-10-06T11:29:30.405Z,76.23
2017-10-06T11:30:30.371Z,76.01
2017-10-06T11:31:30.346Z,77.53
2017-10-06T11:32:30.293Z,77.82
2017-10-06T11:33:30.288Z,77.15
2017-10-06T11:34:30.217Z,76.96
2017-10-06T11:35:30.268Z,76.96
2017-10-06T11:36:30.146Z,76.96
2017-10-06T11:37:30.116Z,77.91
2017-10-06T11:38:30.108Z,78.39
2017-10-06T11:39:31.859Z,78.67
2017-10-06T11:40:30.024Z,78.58
2017-10-06T11:41:29.958Z,79.35
2017-10-06T11:42:29.927Z,78.58
2017-10-06T11:43:29.883Z,79.35
2017-10-06T11:44:29.877Z,78.77
2017-10-06T11:45:29.817Z,78.81
2017-10-06T11:46:29.786Z,78.49
2017-10-06T11:47:29.736Z,78.96
2017-10-06T11:48:29.706Z,79.44
2017-10-06T11:49:29.694Z,79.63
2017-10-06T11:50:29.651Z,80.58
2017-10-06T11:51:29.588Z,80.96
2017-10-06T11:52:29.545Z,82.64
2017-10-06T11:53:29.519Z,83.31
2017-10-06T11:54:29.506Z,83.59
2017-10-06T11:55:29.476Z,84.16
2017-10-06T11:56:29.402Z,85.02
2017-10-06T11:57:29.360Z,86.55
2017-10-06T11:58:29.323Z,86.26
2017-10-06T11:59:29.314Z,86.74
2017-10-06T12:00:29.252Z,86.65
2017-10-06T12:01:29.256Z,86.83
2017-10-06T12:02:29.174Z,86.65
2017-10-06T12:03:29.143Z,86.02
2017-10-06T12:04:29.126Z,86.02
2017-10-06T12:05:29.060Z,85.25
2017-10-06T12:06:29.023Z,81.67
2017-10-06T12:07:29.027Z,81.04
2017-10-06T12:08:28.953Z,80.28
2017-10-06T12:09:28.980Z,80.47
2017-10-06T12:10:28.920Z,79.33
2017-10-06T12:11:28.843Z,78.56
2017-10-06T12:12:28.809Z,78.89
2017-10-06T12:13:28.781Z,78.36
2017-10-06T12:14:28.733Z,77.25
2017-10-06T12:15:28.696Z,74.85
2017-10-06T12:16:28.671Z,73.04
2017-10-06T12:17:28.690Z,72.50
2017-10-06T12:18:28.601Z,72.41
2017-10-06T12:19:28.570Z,73.80
2017-10-06T12:20:28.533Z,75.01
2017-10-06T12:21:28.503Z,74.73
2017-10-06T12:22:28.518Z,75.07
2017-10-06T12:23:28.440Z,77.42
2017-10-06T12:24:28.401Z,78.75
2017-10-06T12:25:28.408Z,77.61
2017-10-06T12:26:28.340Z,78.18
2017-10-06T12:27:28.343Z,78.75
2017-10-06T12:28:28.332Z,78.85
2017-10-06T12:29:28.264Z,79.43
2017-10-06T12:30:28.239Z,79.33
2017-10-06T12:31:28.175Z,78.94
2017-10-06T12:32:28.159Z,79.04
2017-10-06T12:33:28.148Z,78.62
2017-10-06T12:34:28.076Z,78.56
2017-10-06T12:35:28.046Z,78.37
2017-10-06T12:36:28.047Z,79.14
2017-10-06T12:37:28.037Z,79.57
2017-10-06T12:38:27.994Z,78.81
2017-10-06T12:39:27.956Z,79.28
2017-10-06T12:40:27.905Z,78.75
2017-10-06T12:41:27.869Z,78.91
2017-10-06T12:42:27.827Z,79.00
2017-10-06T12:43:27.813Z,79.33
2017-10-06T12:44:27.756Z,79.99
2017-10-06T12:45:27.741Z,79.61
2017-10-06T12:46:27.671Z,79.28
2017-10-06T12:47:27.639Z,80.62
2017-10-06T12:48:27.617Z,81.96
2017-10-06T12:49:27.611Z,81.29
2017-10-06T12:50:27.556Z,80.91
2017-10-06T12:51:27.507Z,81.38
2017-10-06T12:52:27.530Z,82.63
2017-10-06T12:53:27.434Z,81.96
2017-10-06T12:54:27.426Z,82.06
2017-10-06T12:55:27.360Z,81.77
2017-10-06T12:56:27.328Z,81.96
2017-10-06T12:57:27.291Z,81.01
2017-10-06T12:58:27.283Z,81.58
2017-10-06T12:59:27.246Z,81.63
2017-10-06T13:00:27.218Z,81.54
2017-10-06T13:01:27.161Z,81.82
2017-10-06T13:02:27.118Z,82.01
2017-10-06T13:03:27.087Z,81.82
2017-10-06T13:04:27.043Z,81.92
2017-10-06T13:05:27.038Z,82.01
2017-10-06T13:06:26.967Z,81.92
2017-10-06T13:07:26.929Z,82.30
2017-10-06T13:08:26.897Z,81.25
2017-10-06T13:09:26.853Z,81.44
2017-10-06T13:10:26.824Z,81.86
2017-10-06T13:11:26.805Z,80.53
2017-10-06T13:12:26.747Z,80.62
2017-10-06T13:13:26.719Z,79.28
2017-10-06T13:14:26.729Z,79.77
2017-10-06T13:15:26.707Z,80.53
2017-10-06T13:16:26.638Z,79.86
2017-10-06T13:17:26.607Z,80.24
2017-10-06T13:18:26.537Z,81.67
2017-10-06T13:19:26.497Z,80.91
2017-10-06T13:20:26.498Z,81.35
2017-10-06T13:21:26.426Z,81.54
2017-10-06T13:22:26.387Z,81.63
2017-10-06T13:23:26.378Z,80.96
2017-10-06T13:24:26.320Z,81.44
2017-10-06T13:25:26.283Z,81.15
2017-10-06T13:26:26.242Z,81.01
2017-10-06T13:27:26.233Z,80.11
2017-10-06T13:28:26.176Z,80.77
2017-10-06T13:29:26.149Z,80.58
2017-10-06T13:30:26.124Z,80.11
2017-10-06T13:31:26.113Z,79.91
2017-10-06T13:32:26.026Z,80.33
2017-10-06T13:33:26.012Z,80.20
2017-10-06T13:34:25.950Z,80.01
2017-10-06T13:35:35.580Z,81.25
2017-10-06T13:36:27.764Z,81.15
2017-10-06T13:37:26.333Z,81.63
2017-10-06T13:38:26.300Z,81.92
2017-10-06T13:39:26.797Z,81.35
2017-10-06T13:40:26.807Z,81.44
2017-10-06T13:41:26.725Z,81.92
2017-10-06T13:42:27.167Z,81.92
2017-10-06T13:43:26.127Z,81.82
2017-10-06T13:44:27.309Z,82.59
2017-10-06T13:45:26.541Z,81.82
2017-10-06T13:46:27.031Z,82.40
2017-10-06T13:47:26.800Z,81.82
2017-10-06T13:48:26.479Z,81.49
2017-10-06T13:49:25.904Z,82.01
2017-10-06T13:50:26.774Z,81.63
2017-10-06T13:51:26.298Z,83.25
2017-10-06T13:52:29.156Z,82.68
2017-10-06T13:53:34.972Z,82.54
2017-10-06T13:54:26.828Z,82.26
2017-10-06T13:55:25.616Z,83.64
2017-10-06T13:56:26.148Z,82.92
2017-10-06T13:57:26.315Z,83.02
2017-10-06T13:58:25.544Z,82.59
2017-10-06T13:59:26.571Z,82.30
2017-10-06T14:00:26.017Z,82.97
2017-10-06T14:01:26.263Z,81.82
2017-10-06T14:02:26.328Z,82.06
2017-10-06T14:03:25.875Z,80.96
2017-10-06T14:04:26.968Z,81.10
2017-10-06T14:05:26.883Z,79.57
2017-10-06T14:06:25.783Z,79.28
2017-10-06T14:07:26.317Z,79.38
2017-10-06T14:08:25.190Z,78.81
2017-10-06T14:11:08.081Z,78.23
2017-10-06T14:12:07.993Z,78.81
2017-10-06T14:13:07.963Z,78.72
2017-10-06T14:14:07.995Z,79.19
2017-10-06T14:15:07.907Z,80.62
2017-10-06T14:16:07.847Z,80.05
2017-10-06T14:17:07.780Z,80.05
2017-10-06T14:18:07.994Z,80.33
2017-10-06T14:19:07.748Z,80.49
2017-10-06T14:20:07.711Z,81.15
2017-10-06T14:21:07.944Z,81.35
2017-10-06T14:22:07.081Z,81.06
2017-10-06T14:23:07.980Z,81.15
2017-10-06T14:24:08.006Z,81.15
2017-10-06T14:25:06.978Z,80.58
2017-10-06T14:26:07.435Z,81.35
2017-10-06T14:27:07.492Z,81.44
2017-10-06T14:28:07.436Z,81.44
2017-10-06T14:29:07.911Z,80.96
2017-10-06T14:30:06.827Z,81.15
2017-10-06T14:31:06.807Z,81.54
2017-10-06T14:32:07.770Z,81.54
2017-10-06T14:33:07.130Z,81.44
2017-10-06T14:34:07.163Z,81.25
2017-10-06T14:35:07.494Z,81.54
2017-10-06T14:36:06.623Z,81.44
2017-10-06T14:37:06.489Z,80.87
2017-10-06T14:38:06.490Z,80.49
2017-10-06T14:39:06.993Z,80.87
2017-10-06T14:40:06.463Z,80.11
2017-10-06T14:41:06.362Z,80.49
2017-10-06T14:42:06.991Z,79.91
2017-10-06T14:43:06.316Z,80.58
2017-10-06T14:44:06.344Z,80.58
2017-10-06T14:45:06.197Z,80.87
2017-10-06T14:46:06.241Z,81.15
2017-10-06T14:47:06.926Z,80.96
2017-10-06T14:48:06.576Z,81.44
2017-10-06T14:49:06.989Z,81.06
2017-10-06T14:50:06.560Z,80.77
2017-10-06T14:51:06.562Z,80.96
2017-10-06T14:52:06.043Z,81.44
2017-10-06T14:53:06.457Z,81.92
2017-10-06T14:54:06.480Z,81.73
2017-10-06T14:55:07.036Z,81.63
2017-10-06T14:56:05.721Z,81.63
2017-10-06T14:57:06.360Z,81.92
2017-10-06T14:58:06.338Z,81.25
2017-10-06T14:59:06.795Z,80.96
2017-10-06T15:00:07.298Z,80.96
2017-10-06T15:01:06.782Z,81.15
2017-10-06T15:02:06.179Z,81.15
2017-10-06T15:03:06.492Z,81.68
2017-10-06T15:04:05.564Z,81.73
2017-10-06T15:05:06.048Z,81.63
2017-10-06T15:06:07.065Z,82.11
2017-10-06T15:07:06.000Z,81.54
2017-10-06T15:08:05.411Z,81.73
2017-10-06T15:09:05.343Z,82.01
2017-10-06T15:10:05.997Z,81.68
2017-10-06T15:11:05.293Z,82.40
2017-10-06T15:12:05.284Z,81.78
2017-10-06T15:13:05.775Z,81.97
2017-10-06T15:14:05.197Z,82.26
2017-10-06T15:15:05.162Z,82.97
2017-10-06T15:16:04.676Z,83.40
2017-10-06T15:17:04.598Z,84.45
2017-10-06T15:18:04.578Z,85.21
2017-10-06T15:19:04.513Z,86.16
2017-10-06T15:20:04.496Z,86.93
2017-10-06T15:21:04.462Z,87.31
2017-10-06T15:22:04.421Z,87.02
2017-10-06T15:23:04.358Z,88.51
2017-10-06T15:24:04.348Z,87.84
2017-10-06T15:25:04.396Z,88.12
2017-10-06T15:26:04.265Z,88.79
2017-10-06T15:27:04.211Z,89.75